Huvudsida
METAR-TAF:

METAR-TAF

Flygplatser :

Stockholm-Arlanda, Sverige

Arlanda

latitud: 59-39N, longitud: 017-57E, höjd: 38 m

Aktuellt väderrapport

Denna rapport gjordes för 16 timmar och 27 minuter sedan, klockan 14:50 UTC
Vind 5 kt från nord
Temperatur -5°C
Fuktighet 73%
Tryck 1028 hPa
Sikt 10 km eller mer
Brutna moln på en höjd av 2300 ft

METAR: ESSA 201450Z 01005KT 9999 BKN023 M05/M09 Q1028 R01L/19//53 R01R/19//95 R08/19//70 NOSIG

Tid: 08:17 (07:17 UTC)

Väderprognos

Denna rapport gjordes för 19 timmar och 47 minuter sedan, klockan 11:30 UTC
Prognos gäller från 20 kl. 12 UTC till 21 kl. 12 UTC
Vind 4 kt från nord/nordost
Sikt 10 km eller mer
Inga moln under 1 500 m eller inga cumulonimbus

TAF: ESSA 201130Z 2012/2112 03004KT CAVOK

Aktuella väderrapporter och prognoser från 4000 flygplatser (METAR- och TAF-rapporter).

De tillgängliga stationerna syns som gula och röda prickar på kartan.

För musen över prickarna för att se namnen på stationerna.

Klicka sedan för att få väderrapporter och prognoser.

För att ändra kartan: Klicka på de gröna knapparna med ett svart kors på för att zooma in; den gröna knappen med ett streck på för att zooma ut; eller på de gröna pilarna för angränsande kartor.


METAR-TAF: